Aérodrome :
LOGIN :

S'inscrire | Disclaimer

   EN    FR    IT 

 










Légende :    VFR   VFR Marginal   IFR   IFR Intensif   IFR Très Intensif
Visi : 
Plafond : 
>= 8 km
>= 3000ft
5 à 8 km
1000 à 3000 ft
1500m à 5 km
500 à 1000 ft
800 à 1500m
200 à 500 ft
< 800m
< 200 ft
Symboles :   Orages  Brouillard  Fortes neiges  Fortes précipitations  Vent > 20 kt
SIGMETs :   Divers  Orages  Givrage  Turbulence  Onde Orograph.  Cendres Volcan.







- Altitude de l'aérodrome : 2077 ft
- Code IATA : FMM


EDJA - Memmingen

DERNIER METAR :
  • 210750Z 22009KT 9999 FEW040 BKN080 19/17 Q1023

METARs EXPIRÉS :
  • 210720Z 19007KT 9999 FEW015 SCT036 18/17 Q1023 RERA
  • 210650Z 19006KT 160V230 8000 SHRA BKN036TCU BKN087 17/16 Q1023
  • 210620Z 19006KT 9999 BKN033 17/16 Q1023
  • 210550Z 18005KT 150V210 9999 FEW004 BKN055 17/16 Q1022
  • 210520Z 18005KT 140V230 9999 -RA FEW027 BKN056 16/16 Q1022

TAF TAF EDJA
Valide du 21 à 06h jusqu'au 21 à 15h UTC


210500Z 2106/2115 22010KT 9999 BKN030
TEMPO 2106/2108 22015G25KT 4000 TSRA BKN012 BKN030CB
PROB30
TEMPO 2111/2115 TSRA BKN030CB
BECMG 2114/2115 24005KT
Pas de NOTAMs connus pour ce terrain.



MET'MAP, la Météo Aéronautique d'un coup d'oeil ! - Copyright ORBIFLY Décembre 2007 - Disclaimer

ORBIFLY MET'MAP TEAM :

Programmation & Développement : Alexandra Zaïnal
Conception & Développement : Baudouin d'Aumeries
Co-Programmation & Développement : Marc-Olivier Méhu
Soutien technique & logistique : Manuel Goepfert

Contact : metmap@orbifly.com




SOURCES & CREDITS :

   NOAA